sensor_id;sensor_type;location;lat;lon;timestamp;P1;durP1;ratioP1;P2;durP2;ratioP2
64716;SDS011;51146;50.274;19.000;2022-07-10T00:00:44;10.52;;;7.03;;
64716;SDS011;51146;50.274;19.000;2022-07-10T00:03:10;11.65;;;7.53;;
64716;SDS011;51146;50.274;19.000;2022-07-10T00:05:37;12.98;;;7.72;;
64716;SDS011;51146;50.274;19.000;2022-07-10T00:08:05;12.30;;;7.43;;
64716;SDS011;51146;50.274;19.000;2022-07-10T00:10:32;11.40;;;7.63;;
64716;SDS011;51146;50.274;19.000;2022-07-10T00:12:59;11.23;;;7.75;;
64716;SDS011;51146;50.274;19.000;2022-07-10T00:15:26;11.05;;;7.53;;
64716;SDS011;51146;50.274;19.000;2022-07-10T00:17:54;10.32;;;7.50;;
64716;SDS011;51146;50.274;19.000;2022-07-10T00:20:21;9.98;;;7.68;;
64716;SDS011;51146;50.274;19.000;2022-07-10T00:22:48;11.75;;;8.40;;
64716;SDS011;51146;50.274;19.000;2022-07-10T00:25:14;10.55;;;7.00;;
64716;SDS011;51146;50.274;19.000;2022-07-10T00:27:42;11.75;;;7.85;;
64716;SDS011;51146;50.274;19.000;2022-07-10T00:30:09;13.52;;;8.55;;
64716;SDS011;51146;50.274;19.000;2022-07-10T00:32:36;15.20;;;8.65;;
64716;SDS011;51146;50.274;19.000;2022-07-10T00:35:04;10.27;;;8.07;;
64716;SDS011;51146;50.274;19.000;2022-07-10T00:37:32;13.85;;;8.50;;
64716;SDS011;51146;50.274;19.000;2022-07-10T00:39:59;13.07;;;8.57;;
64716;SDS011;51146;50.274;19.000;2022-07-10T00:42:26;13.57;;;8.73;;
64716;SDS011;51146;50.274;19.000;2022-07-10T00:44:53;14.48;;;9.68;;
64716;SDS011;51146;50.274;19.000;2022-07-10T00:47:20;12.93;;;8.73;;
64716;SDS011;51146;50.274;19.000;2022-07-10T00:49:47;13.48;;;8.88;;
64716;SDS011;51146;50.274;19.000;2022-07-10T00:52:15;16.67;;;9.63;;
64716;SDS011;51146;50.274;19.000;2022-07-10T00:54:47;17.65;;;9.35;;
64716;SDS011;51146;50.274;19.000;2022-07-10T00:57:17;18.70;;;10.98;;
64716;SDS011;51146;50.274;19.000;2022-07-10T00:59:44;15.55;;;10.45;;
64716;SDS011;51146;50.274;19.000;2022-07-10T01:02:12;15.35;;;10.00;;
64716;SDS011;51146;50.274;19.000;2022-07-10T01:04:40;15.75;;;10.88;;
64716;SDS011;51146;50.274;19.000;2022-07-10T01:07:07;16.60;;;10.73;;
64716;SDS011;51146;50.274;19.000;2022-07-10T01:09:34;14.25;;;10.43;;
64716;SDS011;51146;50.274;19.000;2022-07-10T01:12:01;15.13;;;11.15;;
64716;SDS011;51146;50.274;19.000;2022-07-10T01:14:29;13.93;;;9.80;;
64716;SDS011;51146;50.274;19.000;2022-07-10T01:16:57;17.13;;;11.00;;
64716;SDS011;51146;50.274;19.000;2022-07-10T01:19:24;16.58;;;10.27;;
64716;SDS011;51146;50.274;19.000;2022-07-10T01:21:51;14.55;;;10.80;;
64716;SDS011;51146;50.274;19.000;2022-07-10T01:24:18;18.48;;;10.93;;
64716;SDS011;51146;50.274;19.000;2022-07-10T01:26:45;13.50;;;9.98;;
64716;SDS011;51146;50.274;19.000;2022-07-10T01:29:11;15.55;;;10.50;;
64716;SDS011;51146;50.274;19.000;2022-07-10T01:31:38;16.42;;;10.65;;
64716;SDS011;51146;50.274;19.000;2022-07-10T01:34:06;16.88;;;9.55;;
64716;SDS011;51146;50.274;19.000;2022-07-10T01:36:35;16.80;;;10.20;;
64716;SDS011;51146;50.274;19.000;2022-07-10T01:39:03;13.00;;;9.50;;
64716;SDS011;51146;50.274;19.000;2022-07-10T01:41:31;14.38;;;9.73;;
64716;SDS011;51146;50.274;19.000;2022-07-10T01:43:58;17.25;;;9.57;;
64716;SDS011;51146;50.274;19.000;2022-07-10T01:46:25;15.65;;;10.13;;
64716;SDS011;51146;50.274;19.000;2022-07-10T01:48:52;13.95;;;10.43;;
64716;SDS011;51146;50.274;19.000;2022-07-10T01:51:20;15.35;;;10.27;;
64716;SDS011;51146;50.274;19.000;2022-07-10T01:53:47;14.15;;;10.20;;
64716;SDS011;51146;50.274;19.000;2022-07-10T01:56:14;18.02;;;10.88;;
64716;SDS011;51146;50.274;19.000;2022-07-10T01:58:42;14.38;;;10.07;;
64716;SDS011;51146;50.274;19.000;2022-07-10T02:01:10;16.42;;;9.65;;
64716;SDS011;51146;50.274;19.000;2022-07-10T02:03:38;12.85;;;10.20;;
64716;SDS011;51146;50.274;19.000;2022-07-10T02:06:23;16.38;;;10.38;;
64716;SDS011;51146;50.274;19.000;2022-07-10T02:08:50;13.68;;;9.63;;
64716;SDS011;51146;50.274;19.000;2022-07-10T02:11:17;12.75;;;9.30;;
64716;SDS011;51146;50.274;19.000;2022-07-10T02:13:44;15.40;;;10.10;;
64716;SDS011;51146;50.274;19.000;2022-07-10T02:16:12;15.93;;;9.77;;
64716;SDS011;51146;50.274;19.000;2022-07-10T02:18:40;15.07;;;9.43;;
64716;SDS011;51146;50.274;19.000;2022-07-10T02:21:08;15.45;;;9.50;;
64716;SDS011;51146;50.274;19.000;2022-07-10T02:23:35;17.23;;;10.02;;
64716;SDS011;51146;50.274;19.000;2022-07-10T02:26:02;11.30;;;8.52;;
64716;SDS011;51146;50.274;19.000;2022-07-10T02:28:31;17.00;;;10.15;;
64716;SDS011;51146;50.274;19.000;2022-07-10T02:30:58;12.50;;;9.20;;
64716;SDS011;51146;50.274;19.000;2022-07-10T02:33:25;13.00;;;8.68;;
64716;SDS011;51146;50.274;19.000;2022-07-10T02:35:52;11.55;;;8.68;;
64716;SDS011;51146;50.274;19.000;2022-07-10T02:38:18;10.30;;;8.07;;
64716;SDS011;51146;50.274;19.000;2022-07-10T02:40:45;11.07;;;8.52;;
64716;SDS011;51146;50.274;19.000;2022-07-10T02:43:12;11.55;;;8.60;;
64716;SDS011;51146;50.274;19.000;2022-07-10T02:45:39;11.38;;;8.10;;
64716;SDS011;51146;50.274;19.000;2022-07-10T02:48:12;10.98;;;8.27;;
64716;SDS011;51146;50.274;19.000;2022-07-10T02:50:40;10.45;;;7.80;;
64716;SDS011;51146;50.274;19.000;2022-07-10T02:53:07;11.48;;;7.72;;
64716;SDS011;51146;50.274;19.000;2022-07-10T02:55:33;10.95;;;6.97;;
64716;SDS011;51146;50.274;19.000;2022-07-10T02:58:00;8.27;;;6.10;;
64716;SDS011;51146;50.274;19.000;2022-07-10T03:00:27;9.30;;;6.28;;
64716;SDS011;51146;50.274;19.000;2022-07-10T03:02:54;8.95;;;6.00;;
64716;SDS011;51146;50.274;19.000;2022-07-10T03:05:21;7.80;;;5.70;;
64716;SDS011;51146;50.274;19.000;2022-07-10T03:07:49;8.00;;;5.35;;
64716;SDS011;51146;50.274;19.000;2022-07-10T03:10:16;8.07;;;5.65;;
64716;SDS011;51146;50.274;19.000;2022-07-10T03:12:43;10.50;;;5.40;;
64716;SDS011;51146;50.274;19.000;2022-07-10T03:15:10;7.70;;;5.80;;
64716;SDS011;51146;50.274;19.000;2022-07-10T03:17:37;6.53;;;4.88;;
64716;SDS011;51146;50.274;19.000;2022-07-10T03:20:04;7.63;;;5.63;;
64716;SDS011;51146;50.274;19.000;2022-07-10T03:22:31;5.75;;;4.68;;
64716;SDS011;51146;50.274;19.000;2022-07-10T03:24:58;7.70;;;4.43;;
64716;SDS011;51146;50.274;19.000;2022-07-10T03:27:25;7.13;;;5.15;;
64716;SDS011;51146;50.274;19.000;2022-07-10T03:29:52;8.32;;;5.15;;
64716;SDS011;51146;50.274;19.000;2022-07-10T03:32:19;7.35;;;5.43;;
64716;SDS011;51146;50.274;19.000;2022-07-10T03:34:46;8.07;;;5.18;;
64716;SDS011;51146;50.274;19.000;2022-07-10T03:37:13;8.95;;;5.30;;
64716;SDS011;51146;50.274;19.000;2022-07-10T03:39:40;9.48;;;5.43;;
64716;SDS011;51146;50.274;19.000;2022-07-10T03:42:07;8.27;;;5.40;;
64716;SDS011;51146;50.274;19.000;2022-07-10T03:44:33;7.50;;;4.72;;
64716;SDS011;51146;50.274;19.000;2022-07-10T03:47:00;6.65;;;4.90;;
64716;SDS011;51146;50.274;19.000;2022-07-10T03:49:27;6.13;;;4.35;;
64716;SDS011;51146;50.274;19.000;2022-07-10T03:51:54;6.90;;;4.15;;
64716;SDS011;51146;50.274;19.000;2022-07-10T03:54:20;6.88;;;4.45;;
64716;SDS011;51146;50.274;19.000;2022-07-10T03:56:47;7.25;;;4.20;;
64716;SDS011;51146;50.274;19.000;2022-07-10T03:59:33;6.40;;;4.88;;
64716;SDS011;51146;50.274;19.000;2022-07-10T04:02:00;6.18;;;5.18;;
64716;SDS011;51146;50.274;19.000;2022-07-10T04:04:27;7.07;;;4.90;;
64716;SDS011;51146;50.274;19.000;2022-07-10T04:06:54;9.60;;;5.50;;
64716;SDS011;51146;50.274;19.000;2022-07-10T04:09:21;7.00;;;5.50;;
64716;SDS011;51146;50.274;19.000;2022-07-10T04:11:48;7.47;;;5.15;;
64716;SDS011;51146;50.274;19.000;2022-07-10T04:14:15;8.00;;;5.97;;
64716;SDS011;51146;50.274;19.000;2022-07-10T04:16:42;7.85;;;5.68;;
64716;SDS011;51146;50.274;19.000;2022-07-10T04:19:09;6.35;;;5.38;;
64716;SDS011;51146;50.274;19.000;2022-07-10T04:21:36;8.13;;;5.78;;
64716;SDS011;51146;50.274;19.000;2022-07-10T04:24:03;7.10;;;6.00;;
64716;SDS011;51146;50.274;19.000;2022-07-10T04:26:32;8.43;;;6.28;;
64716;SDS011;51146;50.274;19.000;2022-07-10T04:28:59;8.43;;;7.15;;
64716;SDS011;51146;50.274;19.000;2022-07-10T04:31:26;10.05;;;7.07;;
64716;SDS011;51146;50.274;19.000;2022-07-10T04:33:53;8.25;;;6.95;;
64716;SDS011;51146;50.274;19.000;2022-07-10T04:36:19;7.90;;;6.88;;
64716;SDS011;51146;50.274;19.000;2022-07-10T04:38:46;9.15;;;7.90;;
64716;SDS011;51146;50.274;19.000;2022-07-10T04:41:13;10.52;;;7.63;;
64716;SDS011;51146;50.274;19.000;2022-07-10T04:43:39;8.50;;;6.35;;
64716;SDS011;51146;50.274;19.000;2022-07-10T04:46:08;9.43;;;6.30;;
64716;SDS011;51146;50.274;19.000;2022-07-10T04:48:34;7.45;;;6.13;;
64716;SDS011;51146;50.274;19.000;2022-07-10T04:51:02;8.50;;;5.75;;
64716;SDS011;51146;50.274;19.000;2022-07-10T04:53:28;9.80;;;5.75;;
64716;SDS011;51146;50.274;19.000;2022-07-10T04:55:55;8.00;;;4.95;;
64716;SDS011;51146;50.274;19.000;2022-07-10T04:58:22;5.05;;;4.40;;
64716;SDS011;51146;50.274;19.000;2022-07-10T05:00:48;5.28;;;4.68;;
64716;SDS011;51146;50.274;19.000;2022-07-10T05:03:15;5.97;;;4.07;;
64716;SDS011;51146;50.274;19.000;2022-07-10T05:05:42;6.38;;;5.03;;
64716;SDS011;51146;50.274;19.000;2022-07-10T05:08:09;7.95;;;4.97;;
64716;SDS011;51146;50.274;19.000;2022-07-10T05:10:36;6.10;;;4.05;;
64716;SDS011;51146;50.274;19.000;2022-07-10T05:13:03;6.50;;;3.90;;
64716;SDS011;51146;50.274;19.000;2022-07-10T05:15:29;4.60;;;3.78;;
64716;SDS011;51146;50.274;19.000;2022-07-10T05:17:56;5.30;;;4.70;;
64716;SDS011;51146;50.274;19.000;2022-07-10T05:20:23;5.90;;;4.00;;
64716;SDS011;51146;50.274;19.000;2022-07-10T05:22:50;7.93;;;3.70;;
64716;SDS011;51146;50.274;19.000;2022-07-10T05:25:16;5.65;;;3.70;;
64716;SDS011;51146;50.274;19.000;2022-07-10T05:27:43;5.32;;;4.00;;
64716;SDS011;51146;50.274;19.000;2022-07-10T05:30:10;4.57;;;3.60;;
64716;SDS011;51146;50.274;19.000;2022-07-10T05:32:43;4.00;;;3.33;;
64716;SDS011;51146;50.274;19.000;2022-07-10T05:35:11;5.18;;;3.10;;
64716;SDS011;51146;50.274;19.000;2022-07-10T05:37:40;3.95;;;3.17;;
64716;SDS011;51146;50.274;19.000;2022-07-10T05:40:07;4.93;;;3.47;;
64716;SDS011;51146;50.274;19.000;2022-07-10T05:42:36;5.75;;;3.42;;
64716;SDS011;51146;50.274;19.000;2022-07-10T05:45:03;4.55;;;3.05;;
64716;SDS011;51146;50.274;19.000;2022-07-10T05:47:32;4.32;;;2.83;;
64716;SDS011;51146;50.274;19.000;2022-07-10T05:49:59;4.82;;;2.97;;
64716;SDS011;51146;50.274;19.000;2022-07-10T05:52:26;5.13;;;3.33;;
64716;SDS011;51146;50.274;19.000;2022-07-10T05:54:55;4.03;;;3.22;;
64716;SDS011;51146;50.274;19.000;2022-07-10T05:57:23;5.20;;;3.03;;
64716;SDS011;51146;50.274;19.000;2022-07-10T05:59:50;5.00;;;2.95;;
64716;SDS011;51146;50.274;19.000;2022-07-10T06:02:17;3.33;;;3.00;;
64716;SDS011;51146;50.274;19.000;2022-07-10T06:04:50;5.32;;;3.10;;
64716;SDS011;51146;50.274;19.000;2022-07-10T06:07:17;5.50;;;3.28;;
64716;SDS011;51146;50.274;19.000;2022-07-10T06:09:44;5.70;;;3.30;;
64716;SDS011;51146;50.274;19.000;2022-07-10T06:12:11;5.13;;;2.60;;
64716;SDS011;51146;50.274;19.000;2022-07-10T06:14:38;5.97;;;3.33;;
64716;SDS011;51146;50.274;19.000;2022-07-10T06:17:05;5.95;;;3.58;;
64716;SDS011;51146;50.274;19.000;2022-07-10T06:19:31;5.20;;;3.53;;
64716;SDS011;51146;50.274;19.000;2022-07-10T06:21:58;5.07;;;3.83;;
64716;SDS011;51146;50.274;19.000;2022-07-10T06:24:43;8.40;;;4.72;;
64716;SDS011;51146;50.274;19.000;2022-07-10T06:27:10;6.40;;;4.20;;
64716;SDS011;51146;50.274;19.000;2022-07-10T06:29:37;5.80;;;3.75;;
64716;SDS011;51146;50.274;19.000;2022-07-10T06:32:05;4.93;;;3.72;;
64716;SDS011;51146;50.274;19.000;2022-07-10T06:34:32;4.40;;;3.05;;
64716;SDS011;51146;50.274;19.000;2022-07-10T06:36:59;4.38;;;2.97;;
64716;SDS011;51146;50.274;19.000;2022-07-10T06:39:26;3.45;;;2.67;;
64716;SDS011;51146;50.274;19.000;2022-07-10T06:41:52;7.00;;;3.20;;
64716;SDS011;51146;50.274;19.000;2022-07-10T06:44:21;4.25;;;3.00;;
64716;SDS011;51146;50.274;19.000;2022-07-10T06:46:48;3.70;;;2.80;;
64716;SDS011;51146;50.274;19.000;2022-07-10T06:49:35;5.03;;;3.60;;
64716;SDS011;51146;50.274;19.000;2022-07-10T06:52:02;3.55;;;2.42;;
64716;SDS011;51146;50.274;19.000;2022-07-10T06:54:37;4.57;;;2.60;;
64716;SDS011;51146;50.274;19.000;2022-07-10T06:57:04;4.68;;;2.58;;
64716;SDS011;51146;50.274;19.000;2022-07-10T06:59:31;2.45;;;2.00;;
64716;SDS011;51146;50.274;19.000;2022-07-10T07:01:58;4.47;;;2.55;;
64716;SDS011;51146;50.274;19.000;2022-07-10T07:04:25;4.50;;;2.20;;
64716;SDS011;51146;50.274;19.000;2022-07-10T07:06:52;3.88;;;2.40;;
64716;SDS011;51146;50.274;19.000;2022-07-10T07:09:19;4.88;;;2.10;;
64716;SDS011;51146;50.274;19.000;2022-07-10T07:11:48;4.03;;;2.00;;
64716;SDS011;51146;50.274;19.000;2022-07-10T07:14:14;6.85;;;2.35;;
64716;SDS011;51146;50.274;19.000;2022-07-10T07:16:42;3.63;;;2.30;;
64716;SDS011;51146;50.274;19.000;2022-07-10T07:19:11;4.53;;;2.03;;
64716;SDS011;51146;50.274;19.000;2022-07-10T07:21:43;3.97;;;2.22;;
64716;SDS011;51146;50.274;19.000;2022-07-10T07:24:29;4.25;;;2.60;;
64716;SDS011;51146;50.274;19.000;2022-07-10T07:26:56;6.28;;;1.98;;
64716;SDS011;51146;50.274;19.000;2022-07-10T07:29:23;4.65;;;2.13;;
64716;SDS011;51146;50.274;19.000;2022-07-10T07:31:49;6.38;;;2.00;;
64716;SDS011;51146;50.274;19.000;2022-07-10T07:34:16;4.78;;;2.28;;
64716;SDS011;51146;50.274;19.000;2022-07-10T07:36:43;3.70;;;2.10;;
64716;SDS011;51146;50.274;19.000;2022-07-10T07:39:10;5.50;;;2.05;;
64716;SDS011;51146;50.274;19.000;2022-07-10T07:41:37;5.55;;;2.67;;
64716;SDS011;51146;50.274;19.000;2022-07-10T07:44:04;5.10;;;2.35;;
64716;SDS011;51146;50.274;19.000;2022-07-10T07:46:30;3.33;;;1.80;;
64716;SDS011;51146;50.274;19.000;2022-07-10T07:48:57;6.65;;;2.20;;
64716;SDS011;51146;50.274;19.000;2022-07-10T07:51:24;4.47;;;1.45;;
64716;SDS011;51146;50.274;19.000;2022-07-10T07:53:51;5.15;;;1.70;;
64716;SDS011;51146;50.274;19.000;2022-07-10T07:56:17;3.67;;;1.80;;
64716;SDS011;51146;50.274;19.000;2022-07-10T07:58:44;3.58;;;1.58;;
64716;SDS011;51146;50.274;19.000;2022-07-10T08:01:11;4.68;;;2.63;;
64716;SDS011;51146;50.274;19.000;2022-07-10T08:03:38;4.00;;;1.75;;
64716;SDS011;51146;50.274;19.000;2022-07-10T08:06:28;5.65;;;2.05;;
64716;SDS011;51146;50.274;19.000;2022-07-10T08:08:55;4.97;;;2.30;;
64716;SDS011;51146;50.274;19.000;2022-07-10T08:11:21;6.18;;;2.70;;
64716;SDS011;51146;50.274;19.000;2022-07-10T08:13:49;5.80;;;2.55;;
64716;SDS011;51146;50.274;19.000;2022-07-10T08:16:15;7.78;;;2.15;;
64716;SDS011;51146;50.274;19.000;2022-07-10T08:18:42;5.40;;;1.83;;
64716;SDS011;51146;50.274;19.000;2022-07-10T08:21:10;4.22;;;1.80;;
64716;SDS011;51146;50.274;19.000;2022-07-10T08:23:36;4.60;;;1.88;;
64716;SDS011;51146;50.274;19.000;2022-07-10T08:26:03;4.32;;;1.98;;
64716;SDS011;51146;50.274;19.000;2022-07-10T08:28:32;3.03;;;1.75;;
64716;SDS011;51146;50.274;19.000;2022-07-10T08:30:58;4.15;;;1.88;;
64716;SDS011;51146;50.274;19.000;2022-07-10T08:33:25;3.42;;;1.90;;
64716;SDS011;51146;50.274;19.000;2022-07-10T08:35:52;5.35;;;1.80;;
64716;SDS011;51146;50.274;19.000;2022-07-10T08:38:19;3.25;;;1.60;;
64716;SDS011;51146;50.274;19.000;2022-07-10T08:40:46;4.60;;;1.75;;
64716;SDS011;51146;50.274;19.000;2022-07-10T08:43:15;4.78;;;1.50;;
64716;SDS011;51146;50.274;19.000;2022-07-10T08:45:42;4.60;;;1.30;;
64716;SDS011;51146;50.274;19.000;2022-07-10T08:48:09;4.35;;;1.80;;
64716;SDS011;51146;50.274;19.000;2022-07-10T08:50:44;5.18;;;1.80;;
64716;SDS011;51146;50.274;19.000;2022-07-10T08:53:18;6.68;;;2.20;;
64716;SDS011;51146;50.274;19.000;2022-07-10T08:55:50;4.07;;;1.67;;
64716;SDS011;51146;50.274;19.000;2022-07-10T08:58:17;6.68;;;1.73;;
64716;SDS011;51146;50.274;19.000;2022-07-10T09:00:46;5.60;;;2.00;;
64716;SDS011;51146;50.274;19.000;2022-07-10T09:03:12;5.00;;;1.70;;
64716;SDS011;51146;50.274;19.000;2022-07-10T09:05:39;4.53;;;1.77;;
64716;SDS011;51146;50.274;19.000;2022-07-10T09:08:22;4.07;;;1.80;;
64716;SDS011;51146;50.274;19.000;2022-07-10T09:10:50;4.45;;;1.30;;
64716;SDS011;51146;50.274;19.000;2022-07-10T09:13:19;3.17;;;1.40;;
64716;SDS011;51146;50.274;19.000;2022-07-10T09:15:49;5.35;;;1.33;;
64716;SDS011;51146;50.274;19.000;2022-07-10T09:20:45;1.83;;;1.20;;
64716;SDS011;51146;50.274;19.000;2022-07-10T09:23:19;4.07;;;1.40;;
64716;SDS011;51146;50.274;19.000;2022-07-10T09:25:48;3.33;;;1.50;;
64716;SDS011;51146;50.274;19.000;2022-07-10T09:28:19;3.53;;;1.45;;
64716;SDS011;51146;50.274;19.000;2022-07-10T09:30:47;3.55;;;1.45;;
64716;SDS011;51146;50.274;19.000;2022-07-10T09:41:15;3.40;;;1.30;;
64716;SDS011;51146;50.274;19.000;2022-07-10T09:46:26;6.18;;;1.70;;
64716;SDS011;51146;50.274;19.000;2022-07-10T09:49:10;2.28;;;1.23;;
64716;SDS011;51146;50.274;19.000;2022-07-10T09:51:38;7.63;;;1.73;;
64716;SDS011;51146;50.274;19.000;2022-07-10T09:54:13;5.53;;;1.50;;
64716;SDS011;51146;50.274;19.000;2022-07-10T09:59:11;3.08;;;1.40;;
64716;SDS011;51146;50.274;19.000;2022-07-10T10:01:42;6.10;;;1.50;;
64716;SDS011;51146;50.274;19.000;2022-07-10T10:04:14;5.53;;;1.50;;
64716;SDS011;51146;50.274;19.000;2022-07-10T10:06:42;7.38;;;1.50;;
64716;SDS011;51146;50.274;19.000;2022-07-10T10:09:18;2.95;;;1.30;;
64716;SDS011;51146;50.274;19.000;2022-07-10T10:11:56;4.75;;;1.20;;
64716;SDS011;51146;50.274;19.000;2022-07-10T10:14:25;2.00;;;1.00;;
64716;SDS011;51146;50.274;19.000;2022-07-10T10:16:54;3.60;;;1.17;;
64716;SDS011;51146;50.274;19.000;2022-07-10T10:19:23;6.40;;;1.53;;
64716;SDS011;51146;50.274;19.000;2022-07-10T10:22:09;4.25;;;1.35;;
64716;SDS011;51146;50.274;19.000;2022-07-10T10:24:41;5.60;;;1.63;;
64716;SDS011;51146;50.274;19.000;2022-07-10T10:27:09;6.15;;;1.70;;
64716;SDS011;51146;50.274;19.000;2022-07-10T10:29:37;4.63;;;1.45;;
64716;SDS011;51146;50.274;19.000;2022-07-10T10:32:06;4.18;;;1.60;;
64716;SDS011;51146;50.274;19.000;2022-07-10T10:34:44;4.47;;;1.55;;
64716;SDS011;51146;50.274;19.000;2022-07-10T10:39:55;5.78;;;2.22;;
64716;SDS011;51146;50.274;19.000;2022-07-10T10:42:34;6.45;;;2.10;;
64716;SDS011;51146;50.274;19.000;2022-07-10T10:48:04;5.72;;;2.00;;
64716;SDS011;51146;50.274;19.000;2022-07-10T10:50:55;5.45;;;2.25;;
64716;SDS011;51146;50.274;19.000;2022-07-10T10:53:26;6.30;;;2.10;;
64716;SDS011;51146;50.274;19.000;2022-07-10T11:09:29;2.65;;;1.10;;
64716;SDS011;51146;50.274;19.000;2022-07-10T11:14:31;2.25;;;1.50;;
64716;SDS011;51146;50.274;19.000;2022-07-10T11:16:59;5.82;;;1.67;;
64716;SDS011;51146;50.274;19.000;2022-07-10T11:19:27;4.40;;;1.70;;
64716;SDS011;51146;50.274;19.000;2022-07-10T11:22:43;2.85;;;1.30;;
64716;SDS011;51146;50.274;19.000;2022-07-10T11:28:03;3.53;;;1.55;;
64716;SDS011;51146;50.274;19.000;2022-07-10T11:30:51;8.65;;;2.95;;
64716;SDS011;51146;50.274;19.000;2022-07-10T11:33:19;7.38;;;2.40;;
64716;SDS011;51146;50.274;19.000;2022-07-10T11:35:49;6.18;;;1.90;;
64716;SDS011;51146;50.274;19.000;2022-07-10T11:38:18;6.07;;;2.13;;
64716;SDS011;51146;50.274;19.000;2022-07-10T11:40:49;5.47;;;1.80;;
64716;SDS011;51146;50.274;19.000;2022-07-10T11:43:19;6.65;;;2.00;;
64716;SDS011;51146;50.274;19.000;2022-07-10T11:45:50;3.33;;;1.35;;
64716;SDS011;51146;50.274;19.000;2022-07-10T11:50:48;5.78;;;1.83;;
64716;SDS011;51146;50.274;19.000;2022-07-10T11:53:22;6.18;;;1.65;;
64716;SDS011;51146;50.274;19.000;2022-07-10T11:55:53;4.93;;;1.20;;
64716;SDS011;51146;50.274;19.000;2022-07-10T11:58:20;4.13;;;1.38;;
64716;SDS011;51146;50.274;19.000;2022-07-10T12:00:58;5.55;;;1.60;;
64716;SDS011;51146;50.274;19.000;2022-07-10T12:03:32;3.90;;;1.45;;
64716;SDS011;51146;50.274;19.000;2022-07-10T12:06:06;2.75;;;1.10;;
64716;SDS011;51146;50.274;19.000;2022-07-10T12:08:45;2.42;;;1.10;;
64716;SDS011;51146;50.274;19.000;2022-07-10T12:11:16;2.50;;;1.35;;
64716;SDS011;51146;50.274;19.000;2022-07-10T12:13:45;2.63;;;1.30;;
64716;SDS011;51146;50.274;19.000;2022-07-10T12:16:13;4.32;;;1.02;;
64716;SDS011;51146;50.274;19.000;2022-07-10T12:18:41;3.17;;;1.10;;
64716;SDS011;51146;50.274;19.000;2022-07-10T12:21:10;4.25;;;2.00;;
64716;SDS011;51146;50.274;19.000;2022-07-10T12:23:38;7.25;;;2.10;;
64716;SDS011;51146;50.274;19.000;2022-07-10T12:26:10;6.70;;;2.22;;
64716;SDS011;51146;50.274;19.000;2022-07-10T12:28:50;4.22;;;1.70;;
64716;SDS011;51146;50.274;19.000;2022-07-10T12:31:19;3.17;;;1.55;;
64716;SDS011;51146;50.274;19.000;2022-07-10T12:33:51;3.23;;;1.37;;
64716;SDS011;51146;50.274;19.000;2022-07-10T12:36:20;3.25;;;1.80;;
64716;SDS011;51146;50.274;19.000;2022-07-10T12:38:54;3.78;;;1.73;;
64716;SDS011;51146;50.274;19.000;2022-07-10T12:41:24;2.85;;;1.52;;
64716;SDS011;51146;50.274;19.000;2022-07-10T12:43:52;5.07;;;1.73;;
64716;SDS011;51146;50.274;19.000;2022-07-10T12:46:21;3.90;;;1.52;;
64716;SDS011;51146;50.274;19.000;2022-07-10T12:49:07;5.05;;;1.05;;
64716;SDS011;51146;50.274;19.000;2022-07-10T12:51:56;4.03;;;1.52;;
64716;SDS011;51146;50.274;19.000;2022-07-10T12:54:38;6.68;;;2.75;;
64716;SDS011;51146;50.274;19.000;2022-07-10T12:57:05;7.30;;;2.40;;
64716;SDS011;51146;50.274;19.000;2022-07-10T12:59:33;5.00;;;2.20;;
64716;SDS011;51146;50.274;19.000;2022-07-10T13:02:17;3.97;;;2.05;;
64716;SDS011;51146;50.274;19.000;2022-07-10T13:04:53;3.80;;;1.83;;
64716;SDS011;51146;50.274;19.000;2022-07-10T13:07:30;4.47;;;2.47;;
64716;SDS011;51146;50.274;19.000;2022-07-10T13:10:04;3.15;;;1.63;;
64716;SDS011;51146;50.274;19.000;2022-07-10T13:12:34;3.10;;;1.40;;
64716;SDS011;51146;50.274;19.000;2022-07-10T13:15:02;3.95;;;1.42;;
64716;SDS011;51146;50.274;19.000;2022-07-10T13:17:29;3.50;;;1.50;;
64716;SDS011;51146;50.274;19.000;2022-07-10T13:19:59;4.07;;;1.40;;
64716;SDS011;51146;50.274;19.000;2022-07-10T13:22:26;4.65;;;1.58;;
64716;SDS011;51146;50.274;19.000;2022-07-10T13:24:52;2.90;;;0.85;;
64716;SDS011;51146;50.274;19.000;2022-07-10T13:27:19;4.22;;;0.90;;
64716;SDS011;51146;50.274;19.000;2022-07-10T13:29:46;3.35;;;1.35;;
64716;SDS011;51146;50.274;19.000;2022-07-10T13:32:14;1.52;;;0.90;;
64716;SDS011;51146;50.274;19.000;2022-07-10T13:34:41;2.60;;;1.00;;
64716;SDS011;51146;50.274;19.000;2022-07-10T13:37:08;5.68;;;1.10;;
64716;SDS011;51146;50.274;19.000;2022-07-10T13:39:34;2.58;;;0.98;;
64716;SDS011;51146;50.274;19.000;2022-07-10T13:42:01;1.48;;;1.23;;
64716;SDS011;51146;50.274;19.000;2022-07-10T13:44:28;4.35;;;1.20;;
64716;SDS011;51146;50.274;19.000;2022-07-10T13:46:55;4.45;;;1.40;;
64716;SDS011;51146;50.274;19.000;2022-07-10T13:49:22;2.65;;;1.00;;
64716;SDS011;51146;50.274;19.000;2022-07-10T13:51:54;4.82;;;1.50;;
64716;SDS011;51146;50.274;19.000;2022-07-10T13:54:21;3.63;;;1.58;;
64716;SDS011;51146;50.274;19.000;2022-07-10T13:56:48;4.63;;;2.00;;
64716;SDS011;51146;50.274;19.000;2022-07-10T13:59:15;7.88;;;1.30;;
64716;SDS011;51146;50.274;19.000;2022-07-10T14:01:48;4.47;;;1.55;;
64716;SDS011;51146;50.274;19.000;2022-07-10T14:04:15;4.32;;;1.83;;
64716;SDS011;51146;50.274;19.000;2022-07-10T14:06:42;2.90;;;1.70;;
64716;SDS011;51146;50.274;19.000;2022-07-10T14:09:09;2.90;;;1.40;;
64716;SDS011;51146;50.274;19.000;2022-07-10T14:11:36;4.43;;;1.17;;
64716;SDS011;51146;50.274;19.000;2022-07-10T14:14:03;3.03;;;1.52;;
64716;SDS011;51146;50.274;19.000;2022-07-10T14:16:29;3.20;;;1.00;;
64716;SDS011;51146;50.274;19.000;2022-07-10T14:18:56;4.00;;;1.40;;
64716;SDS011;51146;50.274;19.000;2022-07-10T14:21:23;3.22;;;1.30;;
64716;SDS011;51146;50.274;19.000;2022-07-10T14:23:53;2.40;;;1.33;;
64716;SDS011;51146;50.274;19.000;2022-07-10T14:26:22;4.22;;;2.47;;
64716;SDS011;51146;50.274;19.000;2022-07-10T14:28:49;1.70;;;1.13;;
64716;SDS011;51146;50.274;19.000;2022-07-10T14:31:19;3.55;;;1.33;;
64716;SDS011;51146;50.274;19.000;2022-07-10T14:33:46;6.75;;;1.40;;
64716;SDS011;51146;50.274;19.000;2022-07-10T14:36:13;2.42;;;1.85;;
64716;SDS011;51146;50.274;19.000;2022-07-10T14:38:40;1.45;;;1.10;;
64716;SDS011;51146;50.274;19.000;2022-07-10T14:41:08;3.95;;;1.20;;
64716;SDS011;51146;50.274;19.000;2022-07-10T14:43:34;1.98;;;0.82;;
64716;SDS011;51146;50.274;19.000;2022-07-10T14:46:03;1.85;;;1.00;;
64716;SDS011;51146;50.274;19.000;2022-07-10T14:48:32;3.78;;;1.40;;
64716;SDS011;51146;50.274;19.000;2022-07-10T14:51:00;3.00;;;1.45;;
64716;SDS011;51146;50.274;19.000;2022-07-10T14:53:27;4.63;;;0.90;;
64716;SDS011;51146;50.274;19.000;2022-07-10T14:55:54;1.58;;;1.15;;
64716;SDS011;51146;50.274;19.000;2022-07-10T14:58:21;1.65;;;0.80;;
64716;SDS011;51146;50.274;19.000;2022-07-10T15:00:48;0.63;;;0.63;;
64716;SDS011;51146;50.274;19.000;2022-07-10T15:03:15;2.17;;;0.90;;
64716;SDS011;51146;50.274;19.000;2022-07-10T15:05:43;2.33;;;0.93;;
64716;SDS011;51146;50.274;19.000;2022-07-10T15:08:10;1.23;;;0.80;;
64716;SDS011;51146;50.274;19.000;2022-07-10T15:10:43;2.45;;;0.88;;
64716;SDS011;51146;50.274;19.000;2022-07-10T15:13:12;1.73;;;0.88;;
64716;SDS011;51146;50.274;19.000;2022-07-10T15:15:40;4.68;;;1.30;;
64716;SDS011;51146;50.274;19.000;2022-07-10T15:18:07;2.80;;;1.10;;
64716;SDS011;51146;50.274;19.000;2022-07-10T15:20:35;1.90;;;1.10;;
64716;SDS011;51146;50.274;19.000;2022-07-10T15:23:03;1.08;;;1.00;;